sensor_id;sensor_type;location;lat;lon;timestamp;temperature;humidity
32660;DHT22;19064;47.912;12.308;2023-04-01T00:01:03;8.10;99.90
32660;DHT22;19064;47.912;12.308;2023-04-01T00:03:31;8.10;99.90
32660;DHT22;19064;47.912;12.308;2023-04-01T00:06:00;8.10;99.90
32660;DHT22;19064;47.912;12.308;2023-04-01T00:08:27;8.00;99.90
32660;DHT22;19064;47.912;12.308;2023-04-01T00:10:54;8.10;99.90
32660;DHT22;19064;47.912;12.308;2023-04-01T00:13:22;8.10;99.90
32660;DHT22;19064;47.912;12.308;2023-04-01T00:15:51;8.10;99.90
32660;DHT22;19064;47.912;12.308;2023-04-01T00:18:17;8.10;99.90
32660;DHT22;19064;47.912;12.308;2023-04-01T00:20:45;8.10;99.90
32660;DHT22;19064;47.912;12.308;2023-04-01T00:23:14;8.10;99.90
32660;DHT22;19064;47.912;12.308;2023-04-01T00:25:41;8.10;99.90
32660;DHT22;19064;47.912;12.308;2023-04-01T00:28:08;8.10;99.90
32660;DHT22;19064;47.912;12.308;2023-04-01T00:30:35;8.10;99.90
32660;DHT22;19064;47.912;12.308;2023-04-01T00:33:03;8.00;99.90
32660;DHT22;19064;47.912;12.308;2023-04-01T00:35:30;8.00;99.90
32660;DHT22;19064;47.912;12.308;2023-04-01T00:37:58;8.00;99.90
32660;DHT22;19064;47.912;12.308;2023-04-01T00:40:29;8.00;99.90
32660;DHT22;19064;47.912;12.308;2023-04-01T00:42:57;8.00;99.90
32660;DHT22;19064;47.912;12.308;2023-04-01T00:45:30;8.00;99.90
32660;DHT22;19064;47.912;12.308;2023-04-01T00:47:59;7.90;99.90
32660;DHT22;19064;47.912;12.308;2023-04-01T00:50:29;7.90;99.90
32660;DHT22;19064;47.912;12.308;2023-04-01T00:52:57;7.80;99.90
32660;DHT22;19064;47.912;12.308;2023-04-01T00:55:27;7.80;99.90
32660;DHT22;19064;47.912;12.308;2023-04-01T00:57:56;7.70;99.90
32660;DHT22;19064;47.912;12.308;2023-04-01T01:00:25;7.70;99.90
32660;DHT22;19064;47.912;12.308;2023-04-01T01:02:52;7.70;99.90
32660;DHT22;19064;47.912;12.308;2023-04-01T01:05:23;7.70;99.90
32660;DHT22;19064;47.912;12.308;2023-04-01T01:07:59;7.60;99.90
32660;DHT22;19064;47.912;12.308;2023-04-01T01:10:32;7.70;99.90
32660;DHT22;19064;47.912;12.308;2023-04-01T01:13:06;7.60;99.90
32660;DHT22;19064;47.912;12.308;2023-04-01T01:15:39;7.60;99.90
32660;DHT22;19064;47.912;12.308;2023-04-01T01:18:13;7.60;99.90
32660;DHT22;19064;47.912;12.308;2023-04-01T01:23:57;7.60;99.90
32660;DHT22;19064;47.912;12.308;2023-04-01T01:26:48;7.60;99.90
32660;DHT22;19064;47.912;12.308;2023-04-01T01:29:32;7.60;99.90
32660;DHT22;19064;47.912;12.308;2023-04-01T01:32:11;7.50;99.90
32660;DHT22;19064;47.912;12.308;2023-04-01T01:34:48;7.50;99.90
32660;DHT22;19064;47.912;12.308;2023-04-01T01:37:22;7.50;99.90
32660;DHT22;19064;47.912;12.308;2023-04-01T01:39:54;7.50;99.90
32660;DHT22;19064;47.912;12.308;2023-04-01T01:42:24;7.40;99.90
32660;DHT22;19064;47.912;12.308;2023-04-01T01:44:52;7.40;99.90
32660;DHT22;19064;47.912;12.308;2023-04-01T01:47:21;7.40;99.90
32660;DHT22;19064;47.912;12.308;2023-04-01T01:49:49;7.40;99.90
32660;DHT22;19064;47.912;12.308;2023-04-01T01:52:19;7.40;99.90
32660;DHT22;19064;47.912;12.308;2023-04-01T01:54:49;7.40;99.90
32660;DHT22;19064;47.912;12.308;2023-04-01T01:57:16;7.40;99.90
32660;DHT22;19064;47.912;12.308;2023-04-01T01:59:45;7.40;99.90
32660;DHT22;19064;47.912;12.308;2023-04-01T02:02:15;7.40;99.90
32660;DHT22;19064;47.912;12.308;2023-04-01T02:04:44;7.40;99.90
32660;DHT22;19064;47.912;12.308;2023-04-01T02:07:15;7.30;99.90
32660;DHT22;19064;47.912;12.308;2023-04-01T02:09:46;7.30;99.90
32660;DHT22;19064;47.912;12.308;2023-04-01T02:12:15;7.30;99.90
32660;DHT22;19064;47.912;12.308;2023-04-01T02:14:45;7.30;99.90
32660;DHT22;19064;47.912;12.308;2023-04-01T02:17:16;7.30;99.90
32660;DHT22;19064;47.912;12.308;2023-04-01T02:19:47;7.30;99.90
32660;DHT22;19064;47.912;12.308;2023-04-01T02:22:17;7.40;99.90
32660;DHT22;19064;47.912;12.308;2023-04-01T02:24:46;7.30;99.90
32660;DHT22;19064;47.912;12.308;2023-04-01T02:27:13;7.40;99.90
32660;DHT22;19064;47.912;12.308;2023-04-01T02:29:40;7.40;99.90
32660;DHT22;19064;47.912;12.308;2023-04-01T02:32:08;7.40;99.90
32660;DHT22;19064;47.912;12.308;2023-04-01T02:34:35;7.50;99.90
32660;DHT22;19064;47.912;12.308;2023-04-01T02:37:03;7.40;99.90
32660;DHT22;19064;47.912;12.308;2023-04-01T02:39:30;7.50;99.90
32660;DHT22;19064;47.912;12.308;2023-04-01T02:41:58;7.50;99.90
32660;DHT22;19064;47.912;12.308;2023-04-01T02:44:24;7.50;99.90
32660;DHT22;19064;47.912;12.308;2023-04-01T02:46:51;7.40;99.90
32660;DHT22;19064;47.912;12.308;2023-04-01T02:49:18;7.40;99.90
32660;DHT22;19064;47.912;12.308;2023-04-01T02:51:45;7.50;99.90
32660;DHT22;19064;47.912;12.308;2023-04-01T02:54:11;7.40;99.90
32660;DHT22;19064;47.912;12.308;2023-04-01T02:56:38;7.40;99.90
32660;DHT22;19064;47.912;12.308;2023-04-01T02:59:06;7.40;99.90
32660;DHT22;19064;47.912;12.308;2023-04-01T03:01:33;7.40;99.90
32660;DHT22;19064;47.912;12.308;2023-04-01T03:04:00;7.40;99.90
32660;DHT22;19064;47.912;12.308;2023-04-01T03:06:27;7.50;99.90
32660;DHT22;19064;47.912;12.308;2023-04-01T03:08:53;7.40;99.90
32660;DHT22;19064;47.912;12.308;2023-04-01T03:11:20;7.50;99.90
32660;DHT22;19064;47.912;12.308;2023-04-01T03:13:47;7.40;99.90
32660;DHT22;19064;47.912;12.308;2023-04-01T03:16:15;7.50;99.90
32660;DHT22;19064;47.912;12.308;2023-04-01T03:18:42;7.40;99.90
32660;DHT22;19064;47.912;12.308;2023-04-01T03:21:13;7.50;99.90
32660;DHT22;19064;47.912;12.308;2023-04-01T03:23:40;7.50;99.90
32660;DHT22;19064;47.912;12.308;2023-04-01T03:26:07;7.50;99.90
32660;DHT22;19064;47.912;12.308;2023-04-01T03:28:34;7.40;99.90
32660;DHT22;19064;47.912;12.308;2023-04-01T03:31:01;7.50;99.90
32660;DHT22;19064;47.912;12.308;2023-04-01T03:33:29;7.40;99.90
32660;DHT22;19064;47.912;12.308;2023-04-01T03:35:56;7.50;99.90
32660;DHT22;19064;47.912;12.308;2023-04-01T03:38:23;7.50;99.90
32660;DHT22;19064;47.912;12.308;2023-04-01T03:40:49;7.40;99.90
32660;DHT22;19064;47.912;12.308;2023-04-01T03:43:16;7.50;99.90
32660;DHT22;19064;47.912;12.308;2023-04-01T03:45:44;7.50;99.90
32660;DHT22;19064;47.912;12.308;2023-04-01T03:48:11;7.50;99.90
32660;DHT22;19064;47.912;12.308;2023-04-01T03:50:41;7.50;99.90
32660;DHT22;19064;47.912;12.308;2023-04-01T03:53:09;7.40;99.90
32660;DHT22;19064;47.912;12.308;2023-04-01T03:55:37;7.50;99.90
32660;DHT22;19064;47.912;12.308;2023-04-01T03:58:05;7.50;99.90
32660;DHT22;19064;47.912;12.308;2023-04-01T04:00:33;7.50;99.90
32660;DHT22;19064;47.912;12.308;2023-04-01T04:03:01;7.50;99.90
32660;DHT22;19064;47.912;12.308;2023-04-01T04:05:29;7.50;99.90
32660;DHT22;19064;47.912;12.308;2023-04-01T04:07:58;7.50;99.90
32660;DHT22;19064;47.912;12.308;2023-04-01T04:10:26;7.50;99.90
32660;DHT22;19064;47.912;12.308;2023-04-01T04:12:55;7.50;99.90
32660;DHT22;19064;47.912;12.308;2023-04-01T04:15:24;7.50;99.90
32660;DHT22;19064;47.912;12.308;2023-04-01T04:17:50;7.60;99.90
32660;DHT22;19064;47.912;12.308;2023-04-01T04:20:17;7.60;99.90
32660;DHT22;19064;47.912;12.308;2023-04-01T04:22:44;7.50;99.90
32660;DHT22;19064;47.912;12.308;2023-04-01T04:25:17;7.50;99.90
32660;DHT22;19064;47.912;12.308;2023-04-01T04:27:46;7.60;99.90
32660;DHT22;19064;47.912;12.308;2023-04-01T04:30:13;7.60;99.90
32660;DHT22;19064;47.912;12.308;2023-04-01T04:32:40;7.60;99.90
32660;DHT22;19064;47.912;12.308;2023-04-01T04:35:08;7.60;99.90
32660;DHT22;19064;47.912;12.308;2023-04-01T04:37:35;7.60;99.90
32660;DHT22;19064;47.912;12.308;2023-04-01T04:40:02;7.70;99.90
32660;DHT22;19064;47.912;12.308;2023-04-01T04:42:30;7.60;99.90
32660;DHT22;19064;47.912;12.308;2023-04-01T04:44:56;7.60;99.90
32660;DHT22;19064;47.912;12.308;2023-04-01T04:47:23;7.60;99.90
32660;DHT22;19064;47.912;12.308;2023-04-01T04:49:50;7.60;99.90
32660;DHT22;19064;47.912;12.308;2023-04-01T04:52:16;7.70;99.90
32660;DHT22;19064;47.912;12.308;2023-04-01T04:54:43;7.70;99.90
32660;DHT22;19064;47.912;12.308;2023-04-01T04:57:10;7.70;99.90
32660;DHT22;19064;47.912;12.308;2023-04-01T04:59:38;7.60;99.90
32660;DHT22;19064;47.912;12.308;2023-04-01T05:02:04;7.60;99.90
32660;DHT22;19064;47.912;12.308;2023-04-01T05:04:34;7.60;99.90
32660;DHT22;19064;47.912;12.308;2023-04-01T05:07:01;7.60;99.90
32660;DHT22;19064;47.912;12.308;2023-04-01T05:09:28;7.60;99.90
32660;DHT22;19064;47.912;12.308;2023-04-01T05:11:55;7.60;99.90
32660;DHT22;19064;47.912;12.308;2023-04-01T05:14:21;7.60;99.90
32660;DHT22;19064;47.912;12.308;2023-04-01T05:16:50;7.60;99.90
32660;DHT22;19064;47.912;12.308;2023-04-01T05:19:16;7.60;99.90
32660;DHT22;19064;47.912;12.308;2023-04-01T05:21:43;7.70;99.90
32660;DHT22;19064;47.912;12.308;2023-04-01T05:24:10;7.70;99.90
32660;DHT22;19064;47.912;12.308;2023-04-01T05:26:36;7.70;99.90
32660;DHT22;19064;47.912;12.308;2023-04-01T05:29:04;7.70;99.90
32660;DHT22;19064;47.912;12.308;2023-04-01T05:31:30;7.70;99.90
32660;DHT22;19064;47.912;12.308;2023-04-01T05:33:58;7.70;99.90
32660;DHT22;19064;47.912;12.308;2023-04-01T05:36:25;7.70;99.90
32660;DHT22;19064;47.912;12.308;2023-04-01T05:38:54;7.80;99.90
32660;DHT22;19064;47.912;12.308;2023-04-01T05:41:21;7.80;99.90
32660;DHT22;19064;47.912;12.308;2023-04-01T05:43:48;7.80;99.90
32660;DHT22;19064;47.912;12.308;2023-04-01T05:46:15;7.80;99.90
32660;DHT22;19064;47.912;12.308;2023-04-01T05:48:41;7.80;99.90
32660;DHT22;19064;47.912;12.308;2023-04-01T05:51:13;7.80;99.90
32660;DHT22;19064;47.912;12.308;2023-04-01T05:53:40;7.80;99.90
32660;DHT22;19064;47.912;12.308;2023-04-01T05:56:07;7.80;99.90
32660;DHT22;19064;47.912;12.308;2023-04-01T05:58:34;7.90;99.90
32660;DHT22;19064;47.912;12.308;2023-04-01T06:01:02;7.90;99.90
32660;DHT22;19064;47.912;12.308;2023-04-01T06:03:29;7.90;99.90
32660;DHT22;19064;47.912;12.308;2023-04-01T06:05:56;7.90;99.90
32660;DHT22;19064;47.912;12.308;2023-04-01T06:08:25;8.00;99.90
32660;DHT22;19064;47.912;12.308;2023-04-01T06:11:06;8.00;99.90
32660;DHT22;19064;47.912;12.308;2023-04-01T06:13:53;8.00;99.90
32660;DHT22;19064;47.912;12.308;2023-04-01T06:16:31;8.10;99.90
32660;DHT22;19064;47.912;12.308;2023-04-01T06:19:21;8.10;99.90
32660;DHT22;19064;47.912;12.308;2023-04-01T06:22:19;8.10;99.90
32660;DHT22;19064;47.912;12.308;2023-04-01T06:25:04;8.20;99.90
32660;DHT22;19064;47.912;12.308;2023-04-01T06:27:53;8.20;99.90
32660;DHT22;19064;47.912;12.308;2023-04-01T06:30:34;8.20;99.90
32660;DHT22;19064;47.912;12.308;2023-04-01T06:33:20;8.30;99.90
32660;DHT22;19064;47.912;12.308;2023-04-01T06:36:08;8.30;99.90
32660;DHT22;19064;47.912;12.308;2023-04-01T06:38:55;8.30;99.90
32660;DHT22;19064;47.912;12.308;2023-04-01T06:41:42;8.40;99.90
32660;DHT22;19064;47.912;12.308;2023-04-01T06:44:16;8.40;99.90
32660;DHT22;19064;47.912;12.308;2023-04-01T06:46:50;8.50;99.90
32660;DHT22;19064;47.912;12.308;2023-04-01T06:49:33;8.70;99.90
32660;DHT22;19064;47.912;12.308;2023-04-01T06:52:06;8.70;99.90
32660;DHT22;19064;47.912;12.308;2023-04-01T06:54:40;8.70;99.90
32660;DHT22;19064;47.912;12.308;2023-04-01T06:57:20;8.80;99.90
32660;DHT22;19064;47.912;12.308;2023-04-01T06:59:50;8.80;99.90
32660;DHT22;19064;47.912;12.308;2023-04-01T07:02:24;8.80;99.90
32660;DHT22;19064;47.912;12.308;2023-04-01T07:04:53;8.90;99.90
32660;DHT22;19064;47.912;12.308;2023-04-01T07:07:29;8.90;99.90
32660;DHT22;19064;47.912;12.308;2023-04-01T07:09:59;8.90;99.90
32660;DHT22;19064;47.912;12.308;2023-04-01T07:12:36;8.90;99.90
32660;DHT22;19064;47.912;12.308;2023-04-01T07:15:15;8.90;99.90
32660;DHT22;19064;47.912;12.308;2023-04-01T07:17:47;9.00;99.90
32660;DHT22;19064;47.912;12.308;2023-04-01T07:20:17;9.00;99.90
32660;DHT22;19064;47.912;12.308;2023-04-01T07:22:49;9.00;99.90
32660;DHT22;19064;47.912;12.308;2023-04-01T07:25:20;9.10;99.90
32660;DHT22;19064;47.912;12.308;2023-04-01T07:27:51;9.10;99.90
32660;DHT22;19064;47.912;12.308;2023-04-01T07:30:20;9.20;99.90
32660;DHT22;19064;47.912;12.308;2023-04-01T07:32:51;9.30;99.90
32660;DHT22;19064;47.912;12.308;2023-04-01T07:35:28;9.50;99.90
32660;DHT22;19064;47.912;12.308;2023-04-01T07:38:13;9.70;99.90
32660;DHT22;19064;47.912;12.308;2023-04-01T07:40:48;9.80;99.90
32660;DHT22;19064;47.912;12.308;2023-04-01T07:46:23;9.70;99.90
32660;DHT22;19064;47.912;12.308;2023-04-01T07:49:02;9.80;99.90
32660;DHT22;19064;47.912;12.308;2023-04-01T07:51:37;9.80;99.90
32660;DHT22;19064;47.912;12.308;2023-04-01T07:54:11;9.90;99.90
32660;DHT22;19064;47.912;12.308;2023-04-01T07:56:48;9.80;99.90
32660;DHT22;19064;47.912;12.308;2023-04-01T07:59:30;9.90;99.90
32660;DHT22;19064;47.912;12.308;2023-04-01T08:02:08;10.10;99.90
32660;DHT22;19064;47.912;12.308;2023-04-01T08:04:49;10.10;99.90
32660;DHT22;19064;47.912;12.308;2023-04-01T08:07:23;10.20;99.90
32660;DHT22;19064;47.912;12.308;2023-04-01T08:09:58;10.30;99.90
32660;DHT22;19064;47.912;12.308;2023-04-01T08:12:35;10.50;99.90
32660;DHT22;19064;47.912;12.308;2023-04-01T08:15:12;10.50;99.90
32660;DHT22;19064;47.912;12.308;2023-04-01T08:17:48;10.70;99.90
32660;DHT22;19064;47.912;12.308;2023-04-01T08:20:27;10.90;99.90
32660;DHT22;19064;47.912;12.308;2023-04-01T08:23:00;11.10;99.90
32660;DHT22;19064;47.912;12.308;2023-04-01T08:25:29;11.30;99.90
32660;DHT22;19064;47.912;12.308;2023-04-01T08:27:59;11.30;99.90
32660;DHT22;19064;47.912;12.308;2023-04-01T08:30:35;11.40;99.90
32660;DHT22;19064;47.912;12.308;2023-04-01T08:33:11;11.50;99.90
32660;DHT22;19064;47.912;12.308;2023-04-01T08:35:41;11.50;99.90
32660;DHT22;19064;47.912;12.308;2023-04-01T08:38:12;11.50;99.90
32660;DHT22;19064;47.912;12.308;2023-04-01T08:40:58;11.40;99.90
32660;DHT22;19064;47.912;12.308;2023-04-01T08:43:46;11.40;99.90
32660;DHT22;19064;47.912;12.308;2023-04-01T08:46:29;11.60;99.90
32660;DHT22;19064;47.912;12.308;2023-04-01T08:49:11;11.40;99.90
32660;DHT22;19064;47.912;12.308;2023-04-01T08:52:22;11.20;99.90
32660;DHT22;19064;47.912;12.308;2023-04-01T08:55:19;11.20;99.90
32660;DHT22;19064;47.912;12.308;2023-04-01T08:57:58;11.30;99.90
32660;DHT22;19064;47.912;12.308;2023-04-01T09:00:30;11.40;99.90
32660;DHT22;19064;47.912;12.308;2023-04-01T09:06:35;11.30;99.90
32660;DHT22;19064;47.912;12.308;2023-04-01T09:09:23;11.30;99.90
32660;DHT22;19064;47.912;12.308;2023-04-01T09:12:17;11.30;99.90
32660;DHT22;19064;47.912;12.308;2023-04-01T09:14:58;11.40;99.90
32660;DHT22;19064;47.912;12.308;2023-04-01T09:17:51;11.40;99.90
32660;DHT22;19064;47.912;12.308;2023-04-01T09:20:52;11.30;99.90
32660;DHT22;19064;47.912;12.308;2023-04-01T09:26:44;11.50;99.90
32660;DHT22;19064;47.912;12.308;2023-04-01T09:29:29;12.10;99.90
32660;DHT22;19064;47.912;12.308;2023-04-01T09:32:15;12.10;99.90
32660;DHT22;19064;47.912;12.308;2023-04-01T09:34:52;12.10;99.90
32660;DHT22;19064;47.912;12.308;2023-04-01T09:37:21;12.40;99.90
32660;DHT22;19064;47.912;12.308;2023-04-01T09:40:16;12.50;99.90
32660;DHT22;19064;47.912;12.308;2023-04-01T09:43:03;12.30;99.90
32660;DHT22;19064;47.912;12.308;2023-04-01T09:45:42;12.30;99.90
32660;DHT22;19064;47.912;12.308;2023-04-01T09:48:22;12.30;99.90
32660;DHT22;19064;47.912;12.308;2023-04-01T09:51:00;12.20;99.90
32660;DHT22;19064;47.912;12.308;2023-04-01T09:53:48;12.10;99.90
32660;DHT22;19064;47.912;12.308;2023-04-01T09:56:45;12.30;99.90
32660;DHT22;19064;47.912;12.308;2023-04-01T09:59:38;12.50;99.90
32660;DHT22;19064;47.912;12.308;2023-04-01T10:05:50;12.80;99.90
32660;DHT22;19064;47.912;12.308;2023-04-01T10:12:17;12.80;99.90
32660;DHT22;19064;47.912;12.308;2023-04-01T10:15:21;12.70;99.90
32660;DHT22;19064;47.912;12.308;2023-04-01T10:21:04;12.80;99.90
32660;DHT22;19064;47.912;12.308;2023-04-01T10:27:07;13.10;99.90
32660;DHT22;19064;47.912;12.308;2023-04-01T10:29:59;13.00;99.90
32660;DHT22;19064;47.912;12.308;2023-04-01T10:38:59;12.80;99.90
32660;DHT22;19064;47.912;12.308;2023-04-01T10:41:53;12.70;99.90
32660;DHT22;19064;47.912;12.308;2023-04-01T10:44:56;12.60;99.90
32660;DHT22;19064;47.912;12.308;2023-04-01T10:47:59;12.50;99.90
32660;DHT22;19064;47.912;12.308;2023-04-01T10:54:13;12.50;99.90
32660;DHT22;19064;47.912;12.308;2023-04-01T10:56:50;12.50;99.90
32660;DHT22;19064;47.912;12.308;2023-04-01T11:06:05;12.50;99.90
32660;DHT22;19064;47.912;12.308;2023-04-01T11:09:08;12.50;99.90
32660;DHT22;19064;47.912;12.308;2023-04-01T11:15:21;12.40;99.90
32660;DHT22;19064;47.912;12.308;2023-04-01T11:18:19;12.30;99.90
32660;DHT22;19064;47.912;12.308;2023-04-01T11:21:12;12.20;99.90
32660;DHT22;19064;47.912;12.308;2023-04-01T11:23:50;12.10;99.90
32660;DHT22;19064;47.912;12.308;2023-04-01T11:26:31;12.00;99.90
32660;DHT22;19064;47.912;12.308;2023-04-01T11:32:02;11.90;99.90
32660;DHT22;19064;47.912;12.308;2023-04-01T11:34:48;11.90;99.90
32660;DHT22;19064;47.912;12.308;2023-04-01T11:37:28;11.80;99.90
32660;DHT22;19064;47.912;12.308;2023-04-01T11:40:05;11.80;99.90
32660;DHT22;19064;47.912;12.308;2023-04-01T11:42:43;11.80;99.90
32660;DHT22;19064;47.912;12.308;2023-04-01T11:45:22;11.80;99.90
32660;DHT22;19064;47.912;12.308;2023-04-01T11:48:00;11.70;99.90
32660;DHT22;19064;47.912;12.308;2023-04-01T11:50:41;11.70;99.90
32660;DHT22;19064;47.912;12.308;2023-04-01T11:53:26;11.70;99.90
32660;DHT22;19064;47.912;12.308;2023-04-01T11:56:19;11.80;99.90
32660;DHT22;19064;47.912;12.308;2023-04-01T11:59:17;11.70;99.90
32660;DHT22;19064;47.912;12.308;2023-04-01T12:01:54;11.70;99.90
32660;DHT22;19064;47.912;12.308;2023-04-01T12:04:51;11.60;99.90
32660;DHT22;19064;47.912;12.308;2023-04-01T12:07:34;11.60;99.90
32660;DHT22;19064;47.912;12.308;2023-04-01T12:10:14;11.50;99.90
32660;DHT22;19064;47.912;12.308;2023-04-01T12:12:52;11.50;99.90
32660;DHT22;19064;47.912;12.308;2023-04-01T12:15:30;11.50;99.90
32660;DHT22;19064;47.912;12.308;2023-04-01T12:18:10;11.50;99.90
32660;DHT22;19064;47.912;12.308;2023-04-01T12:20:49;11.50;99.90
32660;DHT22;19064;47.912;12.308;2023-04-01T12:26:43;11.50;99.90
32660;DHT22;19064;47.912;12.308;2023-04-01T12:29:41;11.40;99.90
32660;DHT22;19064;47.912;12.308;2023-04-01T12:32:20;11.40;99.90
32660;DHT22;19064;47.912;12.308;2023-04-01T12:37:45;11.30;99.90
32660;DHT22;19064;47.912;12.308;2023-04-01T12:40:24;11.30;99.90
32660;DHT22;19064;47.912;12.308;2023-04-01T12:46:03;11.30;99.90
32660;DHT22;19064;47.912;12.308;2023-04-01T12:48:57;11.20;99.90
32660;DHT22;19064;47.912;12.308;2023-04-01T12:51:41;11.10;99.90
32660;DHT22;19064;47.912;12.308;2023-04-01T12:54:47;11.00;99.90
32660;DHT22;19064;47.912;12.308;2023-04-01T12:57:28;11.00;99.90
32660;DHT22;19064;47.912;12.308;2023-04-01T13:00:12;11.10;99.90
32660;DHT22;19064;47.912;12.308;2023-04-01T13:02:53;11.10;99.90
32660;DHT22;19064;47.912;12.308;2023-04-01T13:05:42;11.10;99.90
32660;DHT22;19064;47.912;12.308;2023-04-01T13:08:30;11.00;99.90
32660;DHT22;19064;47.912;12.308;2023-04-01T13:11:09;10.70;99.90
32660;DHT22;19064;47.912;12.308;2023-04-01T13:13:59;10.50;99.90
32660;DHT22;19064;47.912;12.308;2023-04-01T13:16:34;10.30;99.90
32660;DHT22;19064;47.912;12.308;2023-04-01T13:19:08;10.20;99.90
32660;DHT22;19064;47.912;12.308;2023-04-01T13:21:50;10.10;99.90
32660;DHT22;19064;47.912;12.308;2023-04-01T13:24:28;10.00;99.90
32660;DHT22;19064;47.912;12.308;2023-04-01T13:27:09;9.90;99.90
32660;DHT22;19064;47.912;12.308;2023-04-01T13:29:40;9.80;99.90
32660;DHT22;19064;47.912;12.308;2023-04-01T13:32:27;9.70;99.90
32660;DHT22;19064;47.912;12.308;2023-04-01T13:35:13;9.60;99.90
32660;DHT22;19064;47.912;12.308;2023-04-01T13:37:54;9.70;99.90
32660;DHT22;19064;47.912;12.308;2023-04-01T13:40:47;9.70;99.90
32660;DHT22;19064;47.912;12.308;2023-04-01T13:43:19;9.70;99.90
32660;DHT22;19064;47.912;12.308;2023-04-01T13:46:05;9.80;99.90
32660;DHT22;19064;47.912;12.308;2023-04-01T13:48:56;9.80;99.90
32660;DHT22;19064;47.912;12.308;2023-04-01T13:54:53;9.90;99.90
32660;DHT22;19064;47.912;12.308;2023-04-01T13:57:36;9.80;99.90
32660;DHT22;19064;47.912;12.308;2023-04-01T14:00:30;9.90;99.90
32660;DHT22;19064;47.912;12.308;2023-04-01T14:03:26;9.90;99.90
32660;DHT22;19064;47.912;12.308;2023-04-01T14:06:05;9.90;99.90
32660;DHT22;19064;47.912;12.308;2023-04-01T14:08:45;9.80;99.90
32660;DHT22;19064;47.912;12.308;2023-04-01T14:11:19;9.70;99.90
32660;DHT22;19064;47.912;12.308;2023-04-01T14:13:59;9.50;99.90
32660;DHT22;19064;47.912;12.308;2023-04-01T14:17:00;9.50;99.90
32660;DHT22;19064;47.912;12.308;2023-04-01T14:19:39;9.50;99.90
32660;DHT22;19064;47.912;12.308;2023-04-01T14:22:20;9.40;99.90
32660;DHT22;19064;47.912;12.308;2023-04-01T14:25:01;9.30;99.90
32660;DHT22;19064;47.912;12.308;2023-04-01T14:27:45;9.30;99.90
32660;DHT22;19064;47.912;12.308;2023-04-01T14:30:35;9.20;99.90
32660;DHT22;19064;47.912;12.308;2023-04-01T14:33:14;9.10;99.90
32660;DHT22;19064;47.912;12.308;2023-04-01T14:35:50;9.00;99.90
32660;DHT22;19064;47.912;12.308;2023-04-01T14:38:30;8.90;99.90
32660;DHT22;19064;47.912;12.308;2023-04-01T14:41:06;8.90;99.90
32660;DHT22;19064;47.912;12.308;2023-04-01T14:43:48;8.90;99.90
32660;DHT22;19064;47.912;12.308;2023-04-01T14:46:41;8.80;99.90
32660;DHT22;19064;47.912;12.308;2023-04-01T14:49:20;8.80;99.90
32660;DHT22;19064;47.912;12.308;2023-04-01T14:51:48;8.90;99.90
32660;DHT22;19064;47.912;12.308;2023-04-01T14:54:17;8.80;99.90
32660;DHT22;19064;47.912;12.308;2023-04-01T14:56:49;8.80;99.90
32660;DHT22;19064;47.912;12.308;2023-04-01T14:59:27;8.80;99.90
32660;DHT22;19064;47.912;12.308;2023-04-01T15:01:58;8.70;99.90
32660;DHT22;19064;47.912;12.308;2023-04-01T15:04:51;8.80;99.90
32660;DHT22;19064;47.912;12.308;2023-04-01T15:07:55;8.70;99.90
32660;DHT22;19064;47.912;12.308;2023-04-01T15:13:46;8.60;99.90
32660;DHT22;19064;47.912;12.308;2023-04-01T15:16:25;8.60;99.90
32660;DHT22;19064;47.912;12.308;2023-04-01T15:19:00;8.70;99.90
32660;DHT22;19064;47.912;12.308;2023-04-01T15:21:43;8.70;99.90
32660;DHT22;19064;47.912;12.308;2023-04-01T15:24:20;8.60;99.90
32660;DHT22;19064;47.912;12.308;2023-04-01T15:27:10;8.60;99.90
32660;DHT22;19064;47.912;12.308;2023-04-01T15:29:54;8.60;99.90
32660;DHT22;19064;47.912;12.308;2023-04-01T15:32:32;8.50;99.90
32660;DHT22;19064;47.912;12.308;2023-04-01T15:35:19;8.50;99.90
32660;DHT22;19064;47.912;12.308;2023-04-01T15:37:52;8.50;99.90
32660;DHT22;19064;47.912;12.308;2023-04-01T15:40:23;8.40;99.90
32660;DHT22;19064;47.912;12.308;2023-04-01T15:42:59;8.40;99.90
32660;DHT22;19064;47.912;12.308;2023-04-01T15:45:37;8.40;99.90
32660;DHT22;19064;47.912;12.308;2023-04-01T15:48:18;8.40;99.90
32660;DHT22;19064;47.912;12.308;2023-04-01T15:50:56;8.40;99.90
32660;DHT22;19064;47.912;12.308;2023-04-01T15:53:35;8.40;99.90
32660;DHT22;19064;47.912;12.308;2023-04-01T15:56:20;8.40;99.90
32660;DHT22;19064;47.912;12.308;2023-04-01T15:59:04;8.40;99.90
32660;DHT22;19064;47.912;12.308;2023-04-01T16:01:42;8.40;99.90
32660;DHT22;19064;47.912;12.308;2023-04-01T16:04:38;8.40;99.90
32660;DHT22;19064;47.912;12.308;2023-04-01T16:07:23;8.40;99.90
32660;DHT22;19064;47.912;12.308;2023-04-01T16:10:02;8.40;99.90
32660;DHT22;19064;47.912;12.308;2023-04-01T16:12:43;8.40;99.90
32660;DHT22;19064;47.912;12.308;2023-04-01T16:15:23;8.50;99.90
32660;DHT22;19064;47.912;12.308;2023-04-01T16:18:15;8.50;99.90
32660;DHT22;19064;47.912;12.308;2023-04-01T16:20:51;8.50;99.90
32660;DHT22;19064;47.912;12.308;2023-04-01T16:23:24;8.50;99.90
32660;DHT22;19064;47.912;12.308;2023-04-01T16:26:01;8.50;99.90
32660;DHT22;19064;47.912;12.308;2023-04-01T16:28:32;8.50;99.90
32660;DHT22;19064;47.912;12.308;2023-04-01T16:31:04;8.50;99.90
32660;DHT22;19064;47.912;12.308;2023-04-01T16:33:40;8.40;99.90
32660;DHT22;19064;47.912;12.308;2023-04-01T16:36:22;8.50;99.90
32660;DHT22;19064;47.912;12.308;2023-04-01T16:39:06;8.40;99.90
32660;DHT22;19064;47.912;12.308;2023-04-01T16:41:36;8.40;99.90
32660;DHT22;19064;47.912;12.308;2023-04-01T16:44:13;8.40;99.90
32660;DHT22;19064;47.912;12.308;2023-04-01T16:46:44;8.40;99.90
32660;DHT22;19064;47.912;12.308;2023-04-01T16:49:29;8.40;99.90
32660;DHT22;19064;47.912;12.308;2023-04-01T16:52:13;8.40;99.90
32660;DHT22;19064;47.912;12.308;2023-04-01T16:54:45;8.40;99.90
32660;DHT22;19064;47.912;12.308;2023-04-01T16:57:23;8.40;99.90
32660;DHT22;19064;47.912;12.308;2023-04-01T16:59:59;8.40;99.90
32660;DHT22;19064;47.912;12.308;2023-04-01T17:02:33;8.40;99.90
32660;DHT22;19064;47.912;12.308;2023-04-01T17:05:03;8.40;99.90
32660;DHT22;19064;47.912;12.308;2023-04-01T17:07:40;8.40;99.90
32660;DHT22;19064;47.912;12.308;2023-04-01T17:10:38;8.40;99.90
32660;DHT22;19064;47.912;12.308;2023-04-01T17:13:25;8.40;99.90
32660;DHT22;19064;47.912;12.308;2023-04-01T17:16:05;8.40;99.90
32660;DHT22;19064;47.912;12.308;2023-04-01T17:18:41;8.40;99.90
32660;DHT22;19064;47.912;12.308;2023-04-01T17:21:16;8.40;99.90
32660;DHT22;19064;47.912;12.308;2023-04-01T17:23:50;8.40;99.90
32660;DHT22;19064;47.912;12.308;2023-04-01T17:26:26;8.40;99.90
32660;DHT22;19064;47.912;12.308;2023-04-01T17:29:01;8.40;99.90